createdAt,value
2023-01-29T00:00:19.130Z,0.80
2023-01-29T00:02:47.871Z,0.80
2023-01-29T00:05:27.436Z,0.80
2023-01-29T00:07:56.914Z,0.70
2023-01-29T00:10:25.825Z,0.80
2023-01-29T00:12:55.480Z,0.70
2023-01-29T00:15:23.794Z,0.70
2023-01-29T00:17:52.144Z,0.70
2023-01-29T00:20:20.689Z,0.80
2023-01-29T00:22:49.595Z,0.90
2023-01-29T00:25:17.984Z,1.00
2023-01-29T00:27:46.374Z,1.00
2023-01-29T00:30:19.775Z,1.00
2023-01-29T00:32:48.759Z,1.10
2023-01-29T00:35:17.287Z,1.10
2023-01-29T00:37:45.645Z,1.20
2023-01-29T00:40:15.531Z,1.30
2023-01-29T00:43:03.253Z,1.30
2023-01-29T00:45:32.963Z,1.40
2023-01-29T00:48:02.253Z,1.40
2023-01-29T00:50:30.842Z,1.40
2023-01-29T00:52:59.789Z,1.40
2023-01-29T00:55:28.082Z,1.50
2023-01-29T00:57:56.438Z,1.60
2023-01-29T01:00:25.003Z,1.60
2023-01-29T01:03:05.903Z,1.60
2023-01-29T01:05:34.982Z,1.70
2023-01-29T01:08:03.544Z,1.70
2023-01-29T01:10:33.142Z,1.60
2023-01-29T01:13:03.214Z,1.60
2023-01-29T01:15:33.644Z,1.70
2023-01-29T01:18:05.146Z,1.70
2023-01-29T01:20:36.548Z,1.70
2023-01-29T01:23:05.297Z,1.70
2023-01-29T01:25:34.049Z,1.80
2023-01-29T01:28:02.372Z,1.90
2023-01-29T01:30:30.869Z,1.90
2023-01-29T01:32:59.260Z,1.90
2023-01-29T01:35:29.057Z,1.90
2023-01-29T01:37:57.652Z,1.90
2023-01-29T01:40:27.227Z,1.90
2023-01-29T01:42:58.731Z,2.00
2023-01-29T01:45:29.330Z,2.00
2023-01-29T01:48:02.757Z,2.00
2023-01-29T01:50:36.837Z,1.90
2023-01-29T01:53:10.352Z,1.90
2023-01-29T01:55:44.235Z,1.90
2023-01-29T01:58:18.024Z,2.00
2023-01-29T02:00:46.603Z,2.00
2023-01-29T02:03:32.811Z,2.00
2023-01-29T02:06:19.770Z,2.10
2023-01-29T02:09:13.490Z,2.20
2023-01-29T02:11:41.985Z,2.20
2023-01-29T02:14:10.463Z,2.10
2023-01-29T02:16:40.406Z,2.10
2023-01-29T02:19:16.501Z,2.20
2023-01-29T02:22:13.295Z,2.20
2023-01-29T02:25:09.329Z,2.20
2023-01-29T02:28:15.237Z,2.20
2023-01-29T02:30:51.842Z,2.20
2023-01-29T02:33:27.690Z,2.10
2023-01-29T02:36:02.882Z,2.10
2023-01-29T02:38:37.271Z,2.20
2023-01-29T02:41:09.882Z,2.20
2023-01-29T02:43:46.652Z,2.20
2023-01-29T02:46:21.172Z,2.30
2023-01-29T02:48:56.941Z,2.30
2023-01-29T02:51:31.310Z,2.20
2023-01-29T02:54:05.082Z,2.30
2023-01-29T02:56:40.925Z,2.30
2023-01-29T02:59:14.166Z,2.30
2023-01-29T03:01:49.310Z,2.30
2023-01-29T03:04:22.141Z,2.30
2023-01-29T03:06:54.509Z,2.30
2023-01-29T03:09:31.589Z,2.30
2023-01-29T03:12:19.910Z,2.30
2023-01-29T03:15:09.549Z,2.30
2023-01-29T03:17:42.930Z,2.30
2023-01-29T03:20:17.960Z,2.30
2023-01-29T03:22:52.351Z,2.30
2023-01-29T03:25:42.008Z,2.30
2023-01-29T03:28:31.293Z,2.30
2023-01-29T03:31:20.816Z,2.30
2023-01-29T03:33:52.986Z,2.30
2023-01-29T03:36:24.632Z,2.40
2023-01-29T03:38:53.065Z,2.30
2023-01-29T03:41:30.703Z,2.30
2023-01-29T03:44:11.394Z,2.30
2023-01-29T03:46:44.846Z,2.30
2023-01-29T03:49:25.270Z,2.40
2023-01-29T03:52:01.627Z,2.40
2023-01-29T03:54:37.899Z,2.40
2023-01-29T03:57:16.174Z,2.40
2023-01-29T03:59:54.196Z,2.40
2023-01-29T04:02:28.746Z,2.40
2023-01-29T04:05:01.491Z,2.40
2023-01-29T04:07:34.966Z,2.40
2023-01-29T04:10:09.164Z,2.40
2023-01-29T04:12:43.487Z,2.40
2023-01-29T04:15:16.485Z,2.40
2023-01-29T04:17:50.151Z,2.50
2023-01-29T04:20:20.570Z,2.50
2023-01-29T04:22:50.676Z,2.40
2023-01-29T04:25:26.795Z,2.50
2023-01-29T04:28:05.212Z,2.40
2023-01-29T04:30:43.181Z,2.50
2023-01-29T04:33:25.144Z,2.50
2023-01-29T04:36:07.243Z,2.50
2023-01-29T04:38:48.525Z,2.50
2023-01-29T04:41:24.696Z,2.50
2023-01-29T04:44:03.639Z,2.50
2023-01-29T04:46:37.098Z,2.50
2023-01-29T04:49:19.085Z,2.50
2023-01-29T04:51:57.619Z,2.50
2023-01-29T04:54:35.899Z,2.60
2023-01-29T04:57:10.558Z,2.60
2023-01-29T04:59:46.633Z,2.60
2023-01-29T05:02:15.384Z,2.60
2023-01-29T05:04:46.793Z,2.60
2023-01-29T05:07:18.581Z,2.60
2023-01-29T05:09:47.722Z,2.60
2023-01-29T05:12:18.488Z,2.60
2023-01-29T05:14:48.764Z,2.60
2023-01-29T05:17:19.412Z,2.60
2023-01-29T05:19:48.571Z,2.60
2023-01-29T05:22:22.744Z,2.50
2023-01-29T05:24:51.799Z,2.50
2023-01-29T05:27:41.421Z,2.60
2023-01-29T05:30:11.553Z,2.60
2023-01-29T05:32:39.966Z,2.60
2023-01-29T05:35:09.050Z,2.60
2023-01-29T05:37:38.862Z,2.60
2023-01-29T05:40:09.776Z,2.70
2023-01-29T05:42:38.215Z,2.70
2023-01-29T05:45:07.670Z,2.80
2023-01-29T05:47:36.501Z,2.70
2023-01-29T05:50:06.004Z,2.80
2023-01-29T05:52:34.367Z,2.70
2023-01-29T05:55:05.831Z,2.70
2023-01-29T05:57:34.207Z,2.70
2023-01-29T06:00:03.299Z,2.70
2023-01-29T06:02:32.509Z,2.70
2023-01-29T06:05:00.891Z,2.70
2023-01-29T06:07:29.447Z,2.70
2023-01-29T06:09:57.845Z,2.70
2023-01-29T06:12:28.042Z,2.70
2023-01-29T06:14:56.478Z,2.70
2023-01-29T06:17:24.847Z,2.70
2023-01-29T06:19:53.458Z,2.80
2023-01-29T06:22:21.858Z,2.70
2023-01-29T06:24:50.186Z,2.70
2023-01-29T06:27:18.594Z,2.70
2023-01-29T06:29:48.299Z,2.80
2023-01-29T06:32:16.689Z,2.80
2023-01-29T06:34:45.143Z,2.80
2023-01-29T06:37:13.571Z,2.90
2023-01-29T06:39:41.887Z,2.90
2023-01-29T06:42:11.192Z,2.90
2023-01-29T06:44:39.654Z,2.90
2023-01-29T06:47:09.400Z,2.90
2023-01-29T06:49:37.769Z,2.90
2023-01-29T06:52:06.666Z,2.90
2023-01-29T06:54:35.002Z,2.90
2023-01-29T06:57:03.388Z,2.90
2023-01-29T06:59:31.843Z,2.90
2023-01-29T07:02:00.437Z,2.90
2023-01-29T07:04:30.259Z,2.90
2023-01-29T07:07:00.487Z,2.90
2023-01-29T07:09:28.826Z,2.90
2023-01-29T07:11:57.527Z,3.00
2023-01-29T07:14:25.885Z,3.00
2023-01-29T07:16:54.240Z,3.00
2023-01-29T07:19:24.086Z,3.00
2023-01-29T07:21:53.844Z,3.00
2023-01-29T07:24:22.289Z,3.00
2023-01-29T07:26:50.668Z,3.00
2023-01-29T07:29:20.144Z,3.00
2023-01-29T07:31:48.736Z,3.00
2023-01-29T07:34:17.084Z,3.00
2023-01-29T07:36:45.545Z,3.00
2023-01-29T07:39:15.441Z,3.10
2023-01-29T07:41:43.917Z,3.00
2023-01-29T07:44:12.449Z,3.00
2023-01-29T07:46:41.429Z,3.10
2023-01-29T07:49:09.776Z,3.10
2023-01-29T07:51:38.138Z,3.10
2023-01-29T07:54:06.736Z,3.10
2023-01-29T07:56:36.469Z,3.10
2023-01-29T07:59:04.817Z,3.10
2023-01-29T08:01:33.341Z,3.10
2023-01-29T08:04:02.720Z,3.10
2023-01-29T08:06:31.123Z,3.20
2023-01-29T08:08:59.862Z,3.20
2023-01-29T08:11:30.409Z,3.20
2023-01-29T08:14:00.121Z,3.20
2023-01-29T08:16:29.274Z,3.30
2023-01-29T08:18:57.719Z,3.30
2023-01-29T08:21:26.173Z,3.30
2023-01-29T08:23:54.619Z,3.30
2023-01-29T08:26:23.096Z,3.30
2023-01-29T08:28:51.516Z,3.30
2023-01-29T08:31:22.400Z,3.40
2023-01-29T08:33:53.890Z,3.40
2023-01-29T08:36:22.524Z,3.40
2023-01-29T08:38:50.903Z,3.50
2023-01-29T08:41:19.240Z,3.50
2023-01-29T08:43:47.734Z,3.60
2023-01-29T08:46:16.253Z,3.60
2023-01-29T08:48:45.999Z,3.60
2023-01-29T08:51:14.633Z,3.60
2023-01-29T08:53:42.992Z,3.60
2023-01-29T08:56:11.437Z,3.60
2023-01-29T08:58:39.926Z,3.60
2023-01-29T09:01:09.243Z,3.70
2023-01-29T09:03:41.033Z,3.70
2023-01-29T09:06:13.193Z,3.60
2023-01-29T09:08:42.131Z,3.70
2023-01-29T09:11:10.717Z,3.70
2023-01-29T09:13:39.282Z,3.70
2023-01-29T09:16:08.324Z,3.70
2023-01-29T09:18:36.702Z,3.70
2023-01-29T09:21:05.704Z,3.70
2023-01-29T09:23:35.489Z,3.70
2023-01-29T09:26:06.360Z,3.70
2023-01-29T09:28:34.680Z,3.70
2023-01-29T09:31:04.099Z,3.80
2023-01-29T09:33:32.561Z,3.90
2023-01-29T09:36:00.996Z,3.90
2023-01-29T09:38:30.668Z,3.90
2023-01-29T09:41:15.873Z,4.00
2023-01-29T09:43:50.381Z,4.00
2023-01-29T09:46:24.004Z,4.10
2023-01-29T09:48:59.141Z,4.20
2023-01-29T09:51:31.915Z,4.20
2023-01-29T09:54:14.483Z,4.30
2023-01-29T09:56:46.554Z,4.30
2023-01-29T09:59:18.360Z,4.40
2023-01-29T10:01:57.047Z,4.40
2023-01-29T10:04:59.441Z,4.50
2023-01-29T10:08:00.222Z,4.50
2023-01-29T10:10:40.913Z,4.60
2023-01-29T10:13:21.316Z,4.60
2023-01-29T10:16:06.111Z,4.70
2023-01-29T10:18:58.141Z,4.80
2023-01-29T10:21:53.873Z,4.90
2023-01-29T10:24:30.399Z,4.90
2023-01-29T10:27:00.107Z,5.00
2023-01-29T10:29:32.544Z,5.00
2023-01-29T10:32:06.102Z,5.10
2023-01-29T10:34:40.388Z,5.20
2023-01-29T10:37:18.572Z,5.20
2023-01-29T10:39:47.396Z,5.30
2023-01-29T10:42:30.001Z,5.50
2023-01-29T10:45:08.577Z,5.60
2023-01-29T10:48:05.305Z,5.60
2023-01-29T10:50:45.776Z,5.70
2023-01-29T10:53:27.301Z,5.70
2023-01-29T10:56:14.056Z,5.70
2023-01-29T10:58:53.616Z,5.60
2023-01-29T11:01:23.938Z,5.70
2023-01-29T11:03:59.532Z,5.60
2023-01-29T11:06:31.969Z,5.90
2023-01-29T11:09:09.321Z,6.10
2023-01-29T11:11:45.262Z,6.30
2023-01-29T11:14:16.700Z,6.30
2023-01-29T11:16:48.978Z,6.50
2023-01-29T11:19:18.167Z,6.40
2023-01-29T11:21:57.866Z,6.40
2023-01-29T11:24:27.268Z,6.30
2023-01-29T11:26:58.660Z,6.30
2023-01-29T11:29:41.192Z,6.20
2023-01-29T11:32:15.142Z,6.20
2023-01-29T11:35:01.793Z,6.20
2023-01-29T11:37:38.742Z,6.00
2023-01-29T11:40:41.689Z,5.90
2023-01-29T11:43:21.149Z,5.90
2023-01-29T11:45:51.448Z,5.90
2023-01-29T11:48:22.922Z,5.90
2023-01-29T11:50:57.494Z,5.90
2023-01-29T11:53:35.985Z,6.00
2023-01-29T11:56:16.955Z,6.00
2023-01-29T11:58:46.264Z,6.00
2023-01-29T12:01:17.674Z,6.00
2023-01-29T12:03:52.160Z,5.90
2023-01-29T12:06:23.806Z,5.80
2023-01-29T12:08:58.634Z,5.80
2023-01-29T12:11:30.281Z,5.80
2023-01-29T12:14:00.183Z,5.80
2023-01-29T12:16:34.664Z,5.70
2023-01-29T12:19:15.301Z,5.70
2023-01-29T12:21:49.035Z,5.70
2023-01-29T12:24:30.409Z,5.80
2023-01-29T12:27:09.123Z,5.80
2023-01-29T12:29:43.930Z,5.80
2023-01-29T12:32:24.377Z,6.00
2023-01-29T12:34:58.932Z,6.00
2023-01-29T12:37:32.318Z,6.10
2023-01-29T12:40:01.944Z,6.10
2023-01-29T12:42:30.983Z,6.10
2023-01-29T12:45:03.266Z,6.10
2023-01-29T12:47:37.308Z,6.10
2023-01-29T12:50:20.618Z,6.10
2023-01-29T12:52:52.416Z,6.20
2023-01-29T12:55:23.882Z,6.20
2023-01-29T12:57:58.657Z,6.20
2023-01-29T13:00:30.596Z,6.30
2023-01-29T13:03:05.890Z,6.30
2023-01-29T13:05:45.659Z,6.30
2023-01-29T13:08:19.779Z,6.40
2023-01-29T13:10:51.482Z,6.30
2023-01-29T13:13:27.878Z,6.30
2023-01-29T13:15:57.602Z,6.30
2023-01-29T13:18:45.049Z,6.40
2023-01-29T13:21:20.952Z,6.40
2023-01-29T13:23:52.099Z,6.40
2023-01-29T13:26:21.335Z,6.40
2023-01-29T13:28:50.764Z,6.40
2023-01-29T13:31:31.892Z,6.40
2023-01-29T13:34:09.976Z,6.30
2023-01-29T13:36:44.825Z,6.40
2023-01-29T13:39:23.934Z,6.50
2023-01-29T13:41:53.843Z,6.50
2023-01-29T13:44:25.503Z,6.50
2023-01-29T13:46:57.873Z,6.40
2023-01-29T13:49:39.138Z,6.40
2023-01-29T13:52:27.242Z,6.40
2023-01-29T13:55:00.405Z,6.30
2023-01-29T13:57:39.068Z,6.10
2023-01-29T14:00:31.197Z,6.10
2023-01-29T14:03:56.123Z,6.10
2023-01-29T14:06:41.330Z,6.10
2023-01-29T14:09:55.534Z,6.10
2023-01-29T14:12:47.536Z,6.00
2023-01-29T14:15:31.752Z,6.10
2023-01-29T14:18:19.941Z,6.10
2023-01-29T14:21:00.748Z,6.10
2023-01-29T14:23:44.078Z,6.10
2023-01-29T14:26:29.297Z,6.10
2023-01-29T14:29:04.789Z,6.10
2023-01-29T14:31:41.983Z,6.10
2023-01-29T14:34:20.139Z,6.20
2023-01-29T14:36:50.610Z,6.10
2023-01-29T14:39:35.000Z,6.10
2023-01-29T14:42:16.559Z,6.10
2023-01-29T14:45:00.092Z,6.10
2023-01-29T14:47:59.709Z,5.90
2023-01-29T14:51:03.712Z,5.90
2023-01-29T14:53:56.451Z,5.90
2023-01-29T14:56:30.843Z,5.80
2023-01-29T14:59:13.544Z,5.80
2023-01-29T15:01:49.335Z,5.80
2023-01-29T15:04:22.121Z,5.80
2023-01-29T15:06:56.482Z,5.70
2023-01-29T15:09:36.631Z,5.70
2023-01-29T15:12:14.797Z,5.70
2023-01-29T15:14:51.768Z,5.80
2023-01-29T15:17:26.842Z,5.70
2023-01-29T15:19:56.822Z,5.70
2023-01-29T15:22:26.492Z,5.70
2023-01-29T15:25:07.414Z,5.70
2023-01-29T15:27:36.200Z,5.70
2023-01-29T15:30:09.274Z,5.90
2023-01-29T15:32:40.419Z,6.00
2023-01-29T15:35:11.499Z,5.80
2023-01-29T15:37:41.191Z,5.80
2023-01-29T15:40:16.847Z,5.90
2023-01-29T15:42:48.521Z,5.90
2023-01-29T15:45:31.200Z,5.70
2023-01-29T15:48:04.997Z,5.60
2023-01-29T15:50:36.827Z,5.60
2023-01-29T15:53:10.280Z,5.60
2023-01-29T15:55:38.775Z,5.60
2023-01-29T15:58:08.802Z,5.60
2023-01-29T16:00:39.072Z,5.60
2023-01-29T16:03:16.463Z,5.60
2023-01-29T16:05:45.457Z,5.50
2023-01-29T16:08:15.500Z,5.50
2023-01-29T16:10:45.168Z,5.50
2023-01-29T16:13:22.073Z,5.40
2023-01-29T16:15:59.972Z,5.40
2023-01-29T16:18:34.531Z,5.50
2023-01-29T16:21:06.668Z,5.40
2023-01-29T16:23:41.627Z,5.40
2023-01-29T16:26:15.002Z,5.40
2023-01-29T16:28:43.998Z,5.30
2023-01-29T16:31:15.543Z,5.30
2023-01-29T16:33:45.647Z,5.30
2023-01-29T16:36:18.708Z,5.30
2023-01-29T16:38:49.985Z,5.30
2023-01-29T16:41:31.370Z,5.30
2023-01-29T16:44:02.348Z,5.30
2023-01-29T16:46:37.490Z,5.30
2023-01-29T16:49:45.500Z,5.30
2023-01-29T16:52:23.961Z,5.20
2023-01-29T16:54:52.661Z,5.20
2023-01-29T16:57:25.606Z,5.10
2023-01-29T16:59:56.660Z,5.20
2023-01-29T17:02:29.447Z,5.10
2023-01-29T17:05:03.069Z,5.10
2023-01-29T17:07:33.396Z,5.10
2023-01-29T17:10:05.061Z,5.00
2023-01-29T17:12:35.124Z,5.10
2023-01-29T17:15:27.184Z,5.00
2023-01-29T17:17:56.870Z,5.00
2023-01-29T17:20:26.981Z,5.10
2023-01-29T17:22:56.176Z,5.00
2023-01-29T17:25:24.661Z,5.10
2023-01-29T17:27:53.362Z,5.10
2023-01-29T17:30:33.834Z,5.10
2023-01-29T17:33:10.087Z,5.10
2023-01-29T17:35:38.457Z,5.10
2023-01-29T17:38:11.516Z,5.00
2023-01-29T17:40:45.565Z,5.10
2023-01-29T17:43:13.926Z,5.00
2023-01-29T17:45:43.461Z,5.00
2023-01-29T17:48:15.936Z,5.00
2023-01-29T17:50:48.506Z,5.00
2023-01-29T17:53:17.156Z,5.00
2023-01-29T17:55:45.573Z,5.00
2023-01-29T17:58:19.223Z,5.00
2023-01-29T18:00:48.129Z,4.90
2023-01-29T18:03:18.077Z,5.00
2023-01-29T18:05:48.452Z,4.90
2023-01-29T18:08:18.679Z,4.90
2023-01-29T18:10:48.443Z,4.90
2023-01-29T18:13:16.929Z,4.90
2023-01-29T18:15:45.439Z,4.90
2023-01-29T18:18:16.447Z,5.00
2023-01-29T18:20:46.436Z,4.90
2023-01-29T18:23:16.860Z,4.90
2023-01-29T18:25:45.257Z,4.90
2023-01-29T18:28:16.962Z,4.90
2023-01-29T18:30:47.446Z,4.90
2023-01-29T18:33:17.031Z,4.90
2023-01-29T18:35:48.256Z,4.90
2023-01-29T18:38:17.039Z,4.90
2023-01-29T18:40:45.536Z,4.90
2023-01-29T18:43:15.050Z,4.90
2023-01-29T18:45:43.955Z,4.90
2023-01-29T18:48:12.467Z,4.90
2023-01-29T18:50:40.976Z,4.90
2023-01-29T18:53:10.790Z,4.90
2023-01-29T18:55:39.327Z,4.90
2023-01-29T18:58:29.496Z,5.00
2023-01-29T19:00:57.456Z,5.00
2023-01-29T19:03:26.346Z,5.00
2023-01-29T19:05:54.826Z,5.00
2023-01-29T19:08:24.677Z,5.00
2023-01-29T19:10:53.063Z,5.00
2023-01-29T19:13:21.485Z,5.10
2023-01-29T19:15:49.910Z,5.10
2023-01-29T19:18:18.281Z,5.10
2023-01-29T19:20:46.688Z,5.20
2023-01-29T19:23:15.231Z,5.20
2023-01-29T19:25:45.519Z,5.20
2023-01-29T19:28:14.667Z,5.20
2023-01-29T19:30:43.292Z,5.20
2023-01-29T19:33:11.664Z,5.30
2023-01-29T19:35:40.323Z,5.30
2023-01-29T19:38:08.828Z,5.30
2023-01-29T19:40:38.759Z,5.30
2023-01-29T19:43:08.988Z,5.30
2023-01-29T19:45:50.252Z,5.30
2023-01-29T19:48:21.375Z,5.30
2023-01-29T19:50:53.714Z,5.20
2023-01-29T19:53:23.378Z,5.30
2023-01-29T19:55:58.998Z,5.30
2023-01-29T19:58:29.119Z,5.30
2023-01-29T20:00:58.763Z,5.30
2023-01-29T20:03:28.974Z,5.30
2023-01-29T20:05:57.628Z,5.30
2023-01-29T20:08:25.991Z,5.40
2023-01-29T20:10:54.534Z,5.30
2023-01-29T20:13:23.040Z,5.40
2023-01-29T20:15:53.992Z,5.40
2023-01-29T20:18:23.530Z,5.40
2023-01-29T20:20:53.468Z,5.40
2023-01-29T20:23:36.681Z,5.40
2023-01-29T20:26:06.406Z,5.40
2023-01-29T20:28:34.987Z,5.50
2023-01-29T20:31:05.910Z,5.50
2023-01-29T20:33:34.860Z,5.50
2023-01-29T20:36:05.294Z,5.50
2023-01-29T20:38:34.737Z,5.50
2023-01-29T20:41:08.080Z,5.50
2023-01-29T20:43:36.780Z,5.50
2023-01-29T20:46:07.521Z,5.50
2023-01-29T20:48:36.242Z,5.50
2023-01-29T20:51:07.980Z,5.60
2023-01-29T20:53:36.881Z,5.60
2023-01-29T20:56:06.415Z,5.60
2023-01-29T20:58:36.289Z,5.60
2023-01-29T21:01:10.660Z,5.60
2023-01-29T21:03:40.067Z,5.60
2023-01-29T21:06:09.157Z,5.60
2023-01-29T21:08:38.091Z,5.60
2023-01-29T21:11:08.653Z,5.60
2023-01-29T21:13:37.229Z,5.60
2023-01-29T21:16:07.118Z,5.70
2023-01-29T21:18:36.853Z,5.70
2023-01-29T21:21:05.599Z,5.70
2023-01-29T21:23:33.948Z,5.70
2023-01-29T21:26:04.399Z,5.80
2023-01-29T21:28:32.941Z,5.80
2023-01-29T21:31:05.568Z,5.80
2023-01-29T21:33:35.074Z,5.90
2023-01-29T21:36:06.342Z,5.90
2023-01-29T21:38:34.828Z,6.00
2023-01-29T21:41:05.605Z,6.00
2023-01-29T21:43:33.191Z,6.00
2023-01-29T21:46:04.389Z,6.10
2023-01-29T21:48:32.781Z,6.10
2023-01-29T21:51:01.595Z,6.20
2023-01-29T21:53:31.258Z,6.20
2023-01-29T21:56:01.572Z,6.30
2023-01-29T21:58:30.326Z,6.40
2023-01-29T22:01:18.240Z,6.50
2023-01-29T22:03:47.781Z,6.50
2023-01-29T22:06:16.328Z,6.60
2023-01-29T22:08:47.173Z,6.60
2023-01-29T22:11:15.594Z,6.60
2023-01-29T22:13:44.027Z,6.70
2023-01-29T22:16:12.394Z,6.70
2023-01-29T22:18:40.791Z,6.70
2023-01-29T22:21:09.136Z,6.60
2023-01-29T22:23:38.075Z,6.70
2023-01-29T22:26:09.495Z,6.70
2023-01-29T22:28:37.965Z,6.70
2023-01-29T22:31:07.168Z,6.70
2023-01-29T22:33:35.776Z,6.70
2023-01-29T22:36:04.669Z,6.70
2023-01-29T22:38:33.184Z,6.80
2023-01-29T22:41:02.207Z,6.70
2023-01-29T22:43:32.066Z,6.70
2023-01-29T22:46:00.612Z,6.80
2023-01-29T22:48:30.617Z,6.80
2023-01-29T22:51:10.572Z,6.80
2023-01-29T22:53:39.573Z,6.80
2023-01-29T22:56:09.383Z,6.90
2023-01-29T22:58:39.304Z,6.80
2023-01-29T23:01:07.643Z,6.80
2023-01-29T23:03:36.257Z,6.70
2023-01-29T23:06:05.174Z,6.80
2023-01-29T23:08:34.724Z,6.80
2023-01-29T23:11:14.529Z,6.70
2023-01-29T23:13:46.150Z,6.80
2023-01-29T23:16:16.180Z,6.80
2023-01-29T23:18:44.949Z,6.80
2023-01-29T23:21:13.768Z,6.80
2023-01-29T23:23:44.701Z,6.80
2023-01-29T23:26:32.551Z,6.80
2023-01-29T23:29:03.898Z,6.90
2023-01-29T23:31:32.753Z,6.80
2023-01-29T23:34:01.486Z,6.80
2023-01-29T23:36:29.825Z,6.80
2023-01-29T23:38:58.193Z,6.90
2023-01-29T23:41:26.518Z,6.90
2023-01-29T23:43:54.874Z,6.80
2023-01-29T23:46:25.060Z,6.90
2023-01-29T23:48:53.371Z,6.80
2023-01-29T23:51:21.774Z,6.80
2023-01-29T23:53:50.113Z,6.80
2023-01-29T23:56:18.896Z,6.90
2023-01-29T23:58:47.214Z,6.80
